Time;durP1;ratioP1;P1;durP2;ratioP2;P2;SDS_P1;SDS_P2;PMS_P1;PMS_P2;Temp;Humidity;BMP_temperature;BMP_pressure;BME280_temperature;BME280_humidity;BME280_pressure;Samples;Min_cycle;Max_cycle;Signal;HPM_P1;HPM_P2
2023/01/02 00:00:00;;;;;;;6.47;1.77;;;11.50;72.50;;;;;;5015106;28;20112;-75
2023/01/02 00:02:45;;;;;;;3.05;1.30;;;11.50;72.50;;;;;;4997552;28;20532;-75
2023/01/02 00:05:29;;;;;;;7.75;2.05;;;11.40;72.30;;;;;;5012481;28;20048;-76
2023/01/02 00:08:16;;;;;;;4.28;1.77;;;11.40;72.30;;;;;;5007227;28;20492;-76
2023/01/02 00:11:00;;;;;;;5.78;1.65;;;11.40;72.40;;;;;;5001604;28;20088;-75
2023/01/02 00:13:45;;;;;;;6.00;2.30;;;11.40;72.40;;;;;;5000211;28;20757;-75
2023/01/02 00:16:29;;;;;;;3.55;1.30;;;11.40;72.50;;;;;;5006589;28;20157;-75
2023/01/02 00:19:14;;;;;;;5.70;1.80;;;11.30;72.30;;;;;;5009915;28;20692;-76
2023/01/02 00:21:58;;;;;;;5.45;1.98;;;11.30;72.40;;;;;;5003230;28;20048;-74
2023/01/02 00:24:43;;;;;;;8.60;1.42;;;11.30;72.50;;;;;;5007766;28;20053;-75
2023/01/02 00:27:27;;;;;;;7.47;1.50;;;11.30;72.50;;;;;;5007568;28;20536;-76
2023/01/02 00:30:12;;;;;;;6.15;2.53;;;11.30;72.50;;;;;;5000912;28;20180;-77
2023/01/02 00:32:57;;;;;;;6.38;1.70;;;11.30;72.60;;;;;;4995588;28;20045;-75
2023/01/02 00:35:41;;;;;;;6.53;1.98;;;11.30;72.60;;;;;;4996156;28;20057;-77
2023/01/02 00:38:26;;;;;;;6.80;2.05;;;11.30;72.60;;;;;;5000041;28;20137;-74
2023/01/02 00:41:11;;;;;;;4.43;1.58;;;11.30;72.60;;;;;;5001368;28;20132;-76
2023/01/02 00:43:55;;;;;;;6.03;2.33;;;11.30;72.60;;;;;;4999187;28;20421;-75
2023/01/02 00:46:40;;;;;;;4.03;1.95;;;11.30;72.60;;;;;;5004385;28;20048;-75
2023/01/02 00:49:25;;;;;;;6.72;2.13;;;11.30;72.60;;;;;;4987594;28;20042;-76
2023/01/02 00:52:09;;;;;;;3.78;1.45;;;11.30;72.60;;;;;;5004157;28;20111;-74
2023/01/02 00:54:54;;;;;;;5.47;1.95;;;11.30;72.70;;;;;;4993648;28;20056;-74
2023/01/02 00:57:39;;;;;;;5.93;1.67;;;11.30;72.60;;;;;;5005053;28;20040;-74
2023/01/02 01:00:23;;;;;;;5.97;1.50;;;11.20;72.50;;;;;;5009147;28;20045;-75
2023/01/02 01:03:08;;;;;;;4.43;1.45;;;11.30;72.60;;;;;;5000895;28;20523;-76
2023/01/02 01:05:52;;;;;;;7.43;1.65;;;11.20;72.50;;;;;;5003759;28;20044;-75
2023/01/02 01:08:38;;;;;;;4.78;1.70;;;11.30;72.60;;;;;;5002396;28;20079;-75
2023/01/02 01:11:22;;;;;;;5.18;1.52;;;11.20;72.50;;;;;;5008777;28;20096;-75
2023/01/02 01:14:06;;;;;;;6.30;2.08;;;11.30;72.70;;;;;;4998882;28;20041;-75
2023/01/02 01:16:51;;;;;;;6.25;1.67;;;11.20;72.50;;;;;;5005133;28;20095;-75
2023/01/02 01:19:36;;;;;;;5.47;1.55;;;11.20;72.50;;;;;;5004900;28;20571;-75
2023/01/02 01:22:20;;;;;;;5.75;1.88;;;11.30;72.70;;;;;;5000670;28;20056;-76
2023/01/02 01:25:05;;;;;;;9.10;2.85;;;11.20;72.50;;;;;;4997398;28;20068;-74
2023/01/02 01:27:53;;;;;;;4.28;1.33;;;11.30;72.70;;;;;;4996212;28;20515;-77
2023/01/02 01:30:37;;;;;;;4.88;1.58;;;11.20;72.50;;;;;;5002899;28;20037;-76
2023/01/02 01:33:22;;;;;;;6.70;1.80;;;11.30;72.70;;;;;;5000979;28;20092;-74
2023/01/02 01:36:16;;;;;;;5.85;2.05;;;11.30;72.70;;;;;;5014237;28;20531;-74
2023/01/02 01:39:00;;;;;;;7.60;1.80;;;11.30;72.70;;;;;;4996511;28;20045;-75
2023/01/02 01:41:45;;;;;;;6.45;1.50;;;11.30;72.70;;;;;;5001114;28;20140;-75
2023/01/02 01:44:56;;;;;;;6.15;1.77;;;11.30;72.60;;;;;;4980775;28;20049;-74
2023/01/02 01:47:52;;;;;;;5.35;2.15;;;11.30;72.70;;;;;;5004917;28;20079;-75
2023/01/02 01:50:36;;;;;;;5.32;1.67;;;11.30;72.60;;;;;;4998214;28;20121;-73
2023/01/02 01:53:22;;;;;;;4.85;1.92;;;11.30;72.60;;;;;;5003993;28;20056;-75
2023/01/02 01:56:10;;;;;;;2.80;1.10;;;11.30;72.60;;;;;;4999106;28;20434;-76
2023/01/02 01:58:54;;;;;;;3.35;1.63;;;11.30;72.60;;;;;;4996116;28;20068;-75
2023/01/02 02:01:41;;;;;;;4.22;1.52;;;11.30;72.60;;;;;;4993596;28;20711;-75
2023/01/02 02:04:30;;;;;;;5.40;1.85;;;11.30;72.60;;;;;;4998501;28;20053;-74
2023/01/02 02:07:15;;;;;;;5.68;1.33;;;11.30;72.60;;;;;;4988237;28;20040;-75
2023/01/02 02:10:04;;;;;;;5.20;1.30;;;11.30;72.60;;;;;;4997921;28;20098;-73
2023/01/02 02:12:49;;;;;;;3.40;1.45;;;11.30;72.60;;;;;;5008467;28;20041;-75
2023/01/02 02:15:59;;;;;;;5.15;1.33;;;11.30;72.60;;;;;;5014695;28;20127;-74
2023/01/02 02:18:44;;;;;;;5.28;1.33;;;11.30;72.60;;;;;;5005998;28;20115;-75
2023/01/02 02:21:51;;;;;;;4.75;1.48;;;11.30;72.50;;;;;;5004283;28;20048;-74
2023/01/02 02:24:51;;;;;;;4.78;1.70;;;11.30;72.60;;;;;;5011494;28;20056;-74
2023/01/02 02:27:52;;;;;;;3.58;1.35;;;11.30;72.50;;;;;;5016942;28;20642;-75
2023/01/02 02:30:43;;;;;;;5.40;1.40;;;11.30;72.50;;;;;;4999716;28;20037;-75
2023/01/02 02:33:56;;;;;;;6.07;1.27;;;11.30;72.40;;;;;;4998460;28;20044;-74
2023/01/02 02:37:04;;;;;;;3.88;1.88;;;11.30;72.40;;;;;;4996163;28;20128;-74
2023/01/02 02:40:00;;;;;;;8.45;1.70;;;11.40;72.60;;;;;;4993190;28;20069;-76
2023/01/02 02:43:18;;;;;;;4.20;1.08;;;11.30;72.40;;;;;;4994504;28;20104;-75
2023/01/02 02:46:21;;;;;;;6.90;1.63;;;11.40;72.60;;;;;;5002954;28;20057;-75
2023/01/02 02:49:17;;;;;;;6.75;3.67;;;11.30;72.30;;;;;;4996797;28;20073;-76
2023/01/02 02:52:21;;;;;;;3.35;1.00;;;11.40;72.50;;;;;;4997496;28;20142;-76
2023/01/02 02:55:06;;;;;;;;;;;11.40;73.00;;;;;;5005911;28;20164;-76
2023/01/02 02:57:52;;;;;;;4.05;1.73;;;11.40;72.40;;;;;;5006625;28;19916;-76
2023/01/02 03:00:37;;;;;;;4.70;1.35;;;11.40;72.30;;;;;;5005057;28;20263;-75
2023/01/02 03:03:23;;;;;;;5.38;1.88;;;11.40;72.30;;;;;;5012627;28;20531;-75
2023/01/02 03:06:16;;;;;;;4.50;1.50;;;11.40;72.30;;;;;;5005996;28;20045;-75
2023/01/02 03:09:07;;;;;;;5.72;1.25;;;11.40;72.30;;;;;;4999715;28;20045;-75
2023/01/02 03:12:00;;;;;;;5.35;1.58;;;11.40;72.20;;;;;;5005282;28;20044;-75
2023/01/02 03:14:52;;;;;;;5.20;1.40;;;11.40;72.30;;;;;;4998053;28;20520;-75
2023/01/02 03:17:47;;;;;;;4.95;1.10;;;11.40;72.30;;;;;;5006981;28;20041;-75
2023/01/02 03:20:41;;;;;;;5.18;1.60;;;11.40;72.30;;;;;;5004566;28;20045;-74
2023/01/02 03:23:29;;;;;;;4.13;1.27;;;11.40;72.20;;;;;;5006557;28;20076;-75
2023/01/02 03:26:22;;;;;;;4.93;1.58;;;11.40;72.20;;;;;;5023059;28;20048;-75
2023/01/02 03:29:12;;;;;;;3.58;1.20;;;11.40;72.20;;;;;;4999422;28;20077;-76
2023/01/02 03:31:58;;;;;;;4.53;1.58;;;11.40;72.20;;;;;;5002809;28;20036;-76
2023/01/02 03:34:45;;;;;;;4.07;1.40;;;11.40;72.30;;;;;;5007880;28;20052;-76
2023/01/02 03:37:34;;;;;;;2.22;1.20;;;11.50;72.50;;;;;;5002247;28;20072;-76
2023/01/02 03:40:33;;;;;;;4.15;1.40;;;11.50;72.50;;;;;;5009915;28;20045;-76
2023/01/02 03:43:22;;;;;;;4.47;1.85;;;11.50;72.50;;;;;;5010765;28;20107;-77
2023/01/02 03:46:19;;;;;;;3.50;1.25;;;11.60;72.50;;;;;;5009091;28;20045;-75
2023/01/02 03:49:11;;;;;;;5.45;1.40;;;11.70;72.60;;;;;;5008703;28;20053;-75
2023/01/02 03:51:55;;;;;;;4.60;1.17;;;11.70;72.50;;;;;;5003691;28;20033;-75
2023/01/02 03:54:40;;;;;;;3.85;1.40;;;11.70;72.40;;;;;;5002120;28;20048;-76
2023/01/02 03:57:53;;;;;;;4.97;2.08;;;11.80;72.50;;;;;;5006295;28;20084;-76
2023/01/02 04:00:49;;;;;;;4.53;1.58;;;11.80;72.40;;;;;;5004568;28;20046;-75
2023/01/02 04:03:48;;;;;;;5.07;1.50;;;11.80;72.30;;;;;;5002508;28;20452;-74
2023/01/02 04:06:37;;;;;;;3.67;1.65;;;11.90;72.30;;;;;;5009757;28;20052;-77
2023/01/02 04:09:25;;;;;;;6.15;1.45;;;12.00;72.40;;;;;;5004685;28;20069;-77
2023/01/02 04:12:15;;;;;;;4.20;1.55;;;12.00;72.30;;;;;;5003322;28;20044;-76
2023/01/02 04:15:04;;;;;;;5.03;1.35;;;12.00;72.30;;;;;;4993548;28;20041;-77
2023/01/02 04:18:07;;;;;;;3.58;1.50;;;12.00;72.20;;;;;;5009521;28;20131;-76
2023/01/02 04:20:55;;;;;;;;;;;12.10;72.20;;;;;;5013171;28;20089;-75
2023/01/02 04:23:45;;;;;;;4.50;1.35;;;12.10;72.10;;;;;;5001299;28;19928;-76
2023/01/02 04:27:02;;;;;;;5.80;1.65;;;12.00;71.90;;;;;;5007628;28;20210;-75
2023/01/02 04:29:47;;;;;;;4.03;1.30;;;12.00;71.90;;;;;;5003665;28;20041;-76
2023/01/02 04:32:39;;;;;;;3.42;1.42;;;12.00;71.90;;;;;;5004400;28;20425;-76
2023/01/02 04:35:24;;;;;;;3.47;1.52;;;12.00;71.90;;;;;;5001239;28;20715;-77
2023/01/02 04:38:10;;;;;;;4.07;1.52;;;11.90;71.70;;;;;;5003746;28;20044;-76
2023/01/02 04:40:54;;;;;;;3.67;1.75;;;11.90;71.70;;;;;;5008163;28;20053;-76
2023/01/02 04:43:39;;;;;;;4.55;1.90;;;11.90;71.80;;;;;;5005649;28;20117;-78
2023/01/02 04:46:25;;;;;;;4.53;1.48;;;11.80;71.60;;;;;;5009660;28;20502;-77
2023/01/02 04:49:10;;;;;;;4.50;1.58;;;11.80;71.70;;;;;;5003902;28;20051;-78
2023/01/02 04:51:54;;;;;;;5.85;1.45;;;11.70;71.50;;;;;;5009389;28;20048;-76
2023/01/02 04:54:39;;;;;;;4.43;1.65;;;11.70;71.50;;;;;;5009271;28;20108;-76
2023/01/02 04:57:24;;;;;;;3.47;1.33;;;11.70;71.60;;;;;;5023422;28;20053;-77
2023/01/02 05:00:09;;;;;;;2.33;1.48;;;11.60;71.40;;;;;;5008493;28;20095;-80
2023/01/02 05:02:53;;;;;;;3.88;1.08;;;11.60;71.40;;;;;;5002265;28;20108;-75
2023/01/02 05:05:38;;;;;;;4.38;1.25;;;11.50;71.30;;;;;;4999582;28;20040;-75
2023/01/02 05:08:22;;;;;;;4.75;1.50;;;11.50;71.30;;;;;;5001148;28;20118;-75
2023/01/02 05:11:14;;;;;;;8.35;1.70;;;11.50;71.40;;;;;;5008975;28;20041;-75
2023/01/02 05:13:59;;;;;;;2.22;1.00;;;11.40;71.30;;;;;;5015637;28;20037;-75
2023/01/02 05:16:43;;;;;;;4.03;1.50;;;11.40;71.40;;;;;;5011070;28;20091;-75
2023/01/02 05:19:28;;;;;;;3.42;1.52;;;11.40;71.40;;;;;;5003941;28;20704;-76
2023/01/02 05:25:16;;;;;;;9.18;2.03;;;11.40;71.40;;;;;;5011168;28;20052;-76
2023/01/02 05:28:02;;;;;;;4.90;1.60;;;11.40;71.40;;;;;;5009870;28;20135;-76
2023/01/02 05:30:48;;;;;;;5.15;1.52;;;11.40;71.40;;;;;;5004532;28;20072;-76
2023/01/02 05:33:32;;;;;;;6.43;1.90;;;11.30;71.30;;;;;;5018016;28;20041;-74
2023/01/02 05:36:18;;;;;;;4.75;1.40;;;11.30;71.30;;;;;;5010093;28;20044;-74
2023/01/02 05:39:07;;;;;;;4.63;1.17;;;11.30;71.30;;;;;;5011165;28;20041;-76
2023/01/02 05:41:51;;;;;;;8.55;1.80;;;11.30;71.40;;;;;;5007874;28;20080;-76
2023/01/02 05:44:36;;;;;;;3.85;1.27;;;11.30;71.30;;;;;;5011902;28;20056;-75
2023/01/02 05:47:21;;;;;;;4.03;1.60;;;11.30;71.30;;;;;;4993531;28;20087;-75
2023/01/02 05:50:08;;;;;;;5.35;1.75;;;11.20;71.10;;;;;;5005491;28;20405;-75
2023/01/02 05:52:55;;;;;;;4.53;1.17;;;11.20;71.10;;;;;;4995205;28;20517;-74
2023/01/02 05:55:39;;;;;;;4.35;1.52;;;11.20;71.10;;;;;;5009602;28;20085;-75
2023/01/02 05:58:23;;;;;;;2.72;1.23;;;11.20;71.10;;;;;;5004702;28;20037;-75
2023/01/02 06:01:11;;;;;;;4.60;1.63;;;11.20;71.10;;;;;;5017004;28;20110;-75
2023/01/02 06:03:58;;;;;;;5.13;1.65;;;11.20;71.10;;;;;;5010842;28;20523;-76
2023/01/02 06:06:42;;;;;;;5.10;1.80;;;11.20;71.20;;;;;;5001253;28;20116;-75
2023/01/02 06:09:26;;;;;;;4.97;2.33;;;11.10;71.00;;;;;;5005978;28;20393;-75
2023/01/02 06:12:11;;;;;;;4.57;1.60;;;11.20;71.20;;;;;;5002112;28;20176;-75
2023/01/02 06:14:55;;;;;;;3.53;1.60;;;11.10;71.00;;;;;;5011017;28;20064;-77
2023/01/02 06:17:40;;;;;;;3.28;1.38;;;11.10;70.90;;;;;;5003939;28;20099;-76
2023/01/02 06:20:25;;;;;;;3.30;1.75;;;11.10;71.00;;;;;;5006148;28;20068;-76
2023/01/02 06:23:09;;;;;;;3.30;1.60;;;11.10;71.00;;;;;;4999381;28;20051;-76
2023/01/02 06:25:54;;;;;;;5.82;1.73;;;11.10;71.00;;;;;;5002594;28;20164;-76
2023/01/02 06:28:39;;;;;;;4.90;1.50;;;11.10;71.00;;;;;;5003617;28;20049;-75
2023/01/02 06:31:26;;;;;;;3.92;1.80;;;11.10;71.00;;;;;;5008885;28;20036;-77
2023/01/02 06:34:11;;;;;;;2.47;1.23;;;11.10;71.00;;;;;;5003769;28;20655;-76
2023/01/02 06:36:55;;;;;;;4.38;1.58;;;11.10;71.00;;;;;;5003282;28;20405;-76
2023/01/02 06:39:40;;;;;;;3.42;1.45;;;11.10;71.00;;;;;;4990849;28;20045;-76
2023/01/02 06:42:24;;;;;;;3.80;1.58;;;11.20;71.10;;;;;;5002364;28;20551;-75
2023/01/02 06:45:09;;;;;;;3.88;1.33;;;11.20;71.20;;;;;;5015468;28;20060;-76
2023/01/02 06:47:59;;;;;;;3.40;1.48;;;11.10;71.00;;;;;;5004254;28;20049;-75
2023/01/02 06:50:44;;;;;;;4.15;2.10;;;11.20;71.10;;;;;;4996151;28;20543;-75
2023/01/02 06:53:28;;;;;;;4.68;1.95;;;11.10;71.00;;;;;;4998990;28;20045;-76
2023/01/02 06:56:16;;;;;;;4.20;2.13;;;11.20;71.20;;;;;;5001437;28;20041;-75
2023/01/02 06:59:00;;;;;;;3.85;2.03;;;11.20;71.10;;;;;;5009268;28;20108;-75
2023/01/02 07:01:45;;;;;;;2.90;1.63;;;11.20;71.10;;;;;;5010988;28;20041;-79
2023/01/02 07:04:30;;;;;;;6.28;3.10;;;11.20;71.10;;;;;;5012866;28;20524;-79
2023/01/02 07:07:14;;;;;;;4.80;2.45;;;11.20;71.10;;;;;;5012790;28;20045;-79
2023/01/02 07:09:59;;;;;;;4.57;1.67;;;11.20;71.10;;;;;;5007786;28;20041;-78
2023/01/02 07:12:43;;;;;;;4.00;2.22;;;11.20;71.10;;;;;;5007609;28;20045;-78
2023/01/02 07:15:29;;;;;;;4.07;1.95;;;11.30;71.30;;;;;;5005165;28;20072;-81
2023/01/02 07:18:13;;;;;;;7.10;2.67;;;11.30;71.20;;;;;;5011186;28;20069;-78
2023/01/02 07:20:58;;;;;;;3.85;2.03;;;11.30;71.20;;;;;;5008771;28;20067;-85
2023/01/02 07:23:42;;;;;;;4.90;1.90;;;11.40;71.40;;;;;;5004601;28;20153;-87
2023/01/02 07:26:27;;;;;;;4.80;2.03;;;11.50;71.70;;;;;;5006406;28;20555;-77
2023/01/02 07:29:11;;;;;;;6.18;2.50;;;11.60;71.90;;;;;;5004760;28;20045;-78
2023/01/02 07:31:56;;;;;;;3.97;1.88;;;11.80;72.10;;;;;;5010330;28;20141;-77
2023/01/02 07:34:41;;;;;;;5.78;2.75;;;11.90;72.00;;;;;;5002414;28;20049;-77
2023/01/02 07:37:25;;;;;;;7.68;3.15;;;12.10;72.10;;;;;;5004749;28;20041;-78
2023/01/02 07:40:10;;;;;;;4.55;2.55;;;12.20;72.10;;;;;;4998501;28;20661;-78
2023/01/02 07:42:55;;;;;;;4.53;2.28;;;12.30;71.90;;;;;;4993676;28;20164;-76
2023/01/02 07:45:40;;;;;;;3.65;2.38;;;12.40;71.80;;;;;;5004932;28;20103;-76
2023/01/02 07:48:24;;;;;;;3.67;2.67;;;12.50;71.40;;;;;;5003533;28;20163;-79
2023/01/02 07:51:10;;;;;;;4.85;2.58;;;12.40;70.90;;;;;;5015627;28;20088;-87
2023/01/02 07:53:55;;;;;;;3.50;2.40;;;12.20;70.50;;;;;;5008069;28;20339;-88
2023/01/02 07:56:39;;;;;;;4.47;3.03;;;12.00;70.10;;;;;;5005794;28;20642;-84
2023/01/02 07:59:27;;;;;;;5.32;2.72;;;11.80;70.00;;;;;;4999854;28;20177;-84
2023/01/02 08:02:12;;;;;;;4.20;2.95;;;11.60;69.80;;;;;;5003076;28;20131;-84
2023/01/02 08:04:58;;;;;;;5.82;3.38;;;11.40;69.70;;;;;;4983453;28;20087;-85
2023/01/02 08:07:43;;;;;;;4.40;3.10;;;11.20;69.60;;;;;;5014283;28;20041;-86
2023/01/02 08:10:29;;;;;;;5.45;3.08;;;11.00;69.50;;;;;;5004821;28;20068;-81
2023/01/02 08:13:14;;;;;;;4.95;3.00;;;10.90;69.60;;;;;;5008530;28;20029;-81
2023/01/02 08:16:04;;;;;;;4.80;3.60;;;10.70;69.30;;;;;;5009972;28;20048;-81
2023/01/02 08:18:53;;;;;;;5.93;3.17;;;10.60;69.30;;;;;;4998198;28;20041;-82
2023/01/02 08:21:38;;;;;;;5.90;3.08;;;10.40;69.10;;;;;;5003866;28;20500;-81
2023/01/02 08:24:22;;;;;;;7.22;3.40;;;10.30;69.00;;;;;;5010546;28;20056;-80
2023/01/02 08:27:07;;;;;;;4.45;3.25;;;10.20;69.00;;;;;;5009164;28;20535;-81
2023/01/02 08:29:51;;;;;;;4.30;2.90;;;10.10;68.90;;;;;;5022425;28;20123;-81
2023/01/02 08:32:37;;;;;;;5.07;3.53;;;10.00;68.80;;;;;;5009280;28;20064;-80
2023/01/02 08:35:23;;;;;;;4.78;3.58;;;9.90;68.70;;;;;;5010142;28;20044;-82
2023/01/02 08:38:07;;;;;;;6.95;3.60;;;9.80;68.60;;;;;;5005034;28;20056;-79
2023/01/02 08:40:52;;;;;;;5.03;3.60;;;9.70;68.40;;;;;;5005199;28;20089;-79
2023/01/02 08:43:38;;;;;;;8.52;3.95;;;9.60;68.30;;;;;;5005167;28;20057;-79
2023/01/02 08:46:22;;;;;;;5.88;3.90;;;9.60;68.30;;;;;;5006611;28;20103;-89
2023/01/02 08:49:07;;;;;;;7.18;4.07;;;9.50;68.20;;;;;;5008070;28;20100;-79
2023/01/02 08:51:51;;;;;;;6.25;3.67;;;9.40;68.10;;;;;;5004639;28;20441;-80
2023/01/02 08:54:36;;;;;;;5.80;3.50;;;9.40;68.20;;;;;;5004256;28;20103;-82
2023/01/02 08:57:21;;;;;;;5.82;4.03;;;9.30;67.90;;;;;;5015672;28;20127;-83
2023/01/02 09:00:06;;;;;;;6.22;3.83;;;9.30;67.90;;;;;;5008300;28;20111;-81
2023/01/02 09:02:51;;;;;;;4.35;3.80;;;9.20;67.70;;;;;;5003976;28;20465;-77
2023/01/02 09:05:35;;;;;;;5.50;4.78;;;9.20;67.70;;;;;;5005373;28;20453;-76
2023/01/02 09:08:20;;;;;;;5.03;4.25;;;9.20;67.70;;;;;;5007047;28;20063;-76
2023/01/02 09:11:17;;;;;;;4.55;4.00;;;9.20;67.70;;;;;;5005685;28;20634;-82
2023/01/02 09:14:03;;;;;;;5.30;4.03;;;9.10;67.50;;;;;;5010625;28;20123;-84
2023/01/02 09:16:49;;;;;;;5.63;3.97;;;9.10;67.60;;;;;;5008388;28;20515;-85
2023/01/02 09:19:34;;;;;;;6.40;4.47;;;9.10;67.80;;;;;;5011828;28;20067;-82
2023/01/02 09:22:19;;;;;;;5.88;4.47;;;9.10;68.00;;;;;;5005704;28;20092;-82
2023/01/02 09:25:04;;;;;;;4.82;3.83;;;9.10;67.70;;;;;;5020242;28;20099;-81
2023/01/02 09:27:49;;;;;;;4.85;4.35;;;9.10;67.70;;;;;;5014168;28;20044;-84
2023/01/02 09:30:35;;;;;;;5.13;4.45;;;9.10;67.60;;;;;;4991767;28;20045;-75
2023/01/02 09:33:20;;;;;;;6.93;4.60;;;9.10;67.60;;;;;;5017609;28;20133;-84
2023/01/02 09:36:07;;;;;;;4.55;4.07;;;9.10;67.60;;;;;;4994806;28;20048;-84
2023/01/02 09:38:54;;;;;;;4.75;4.28;;;9.00;67.40;;;;;;5007288;28;20168;-84
2023/01/02 09:41:41;;;;;;;5.78;4.20;;;8.90;67.30;;;;;;4998613;28;20072;-81
2023/01/02 09:44:28;;;;;;;5.10;3.92;;;8.90;67.30;;;;;;5004654;28;20450;-82
2023/01/02 09:47:22;;;;;;;5.70;4.28;;;9.00;67.40;;;;;;5004395;28;20053;-82
2023/01/02 09:50:17;;;;;;;5.22;4.50;;;8.90;67.20;;;;;;5014229;28;20065;-81
2023/01/02 09:53:03;;;;;;;5.43;4.75;;;8.90;67.20;;;;;;5000291;28;20082;-83
2023/01/02 09:56:26;;;;;;;6.38;4.82;;;8.90;67.20;;;;;;5005502;28;20576;-83
2023/01/02 09:59:25;;;;;;;6.35;5.22;;;8.90;67.20;;;;;;5004689;28;20065;-82
2023/01/02 10:02:19;;;;;;;5.05;4.63;;;8.90;67.10;;;;;;5005707;28;20111;-82
2023/01/02 10:05:19;;;;;;;5.68;4.90;;;8.90;67.10;;;;;;5006760;28;20103;-84
2023/01/02 10:08:27;;;;;;;5.40;4.40;;;8.80;66.90;;;;;;5004156;28;20049;-84
2023/01/02 10:11:22;;;;;;;5.22;4.72;;;8.90;67.10;;;;;;4996378;28;20079;-83
2023/01/02 10:14:26;;;;;;;5.78;4.53;;;8.80;66.90;;;;;;4993968;28;20041;-83
2023/01/02 10:17:14;;;;;;;8.35;4.78;;;8.80;66.90;;;;;;4997273;28;20044;-83
2023/01/02 10:20:02;;;;;;;6.88;5.40;;;8.80;66.90;;;;;;5017339;28;20117;-81
2023/01/02 10:22:55;;;;;;;7.65;6.18;;;8.90;67.10;;;;;;4997023;28;20065;-79
2023/01/02 10:26:06;;;;;;;6.85;5.32;;;8.90;67.00;;;;;;5010055;28;20044;-79
2023/01/02 10:29:05;;;;;;;8.05;5.40;;;8.90;67.00;;;;;;5010109;28;20040;-78
2023/01/02 10:32:15;;;;;;;8.20;5.47;;;8.90;66.90;;;;;;5009565;28;20045;-78
2023/01/02 10:35:05;;;;;;;5.60;4.90;;;8.90;66.90;;;;;;4996921;28;20414;-78
2023/01/02 10:37:49;;;;;;;8.10;5.40;;;8.90;66.80;;;;;;5010246;28;20108;-79
2023/01/02 10:40:34;;;;;;;6.07;5.43;;;8.90;66.80;;;;;;5001070;28;20488;-77
2023/01/02 10:43:19;;;;;;;5.38;4.85;;;8.90;66.80;;;;;;5001074;28;20053;-78
2023/01/02 10:46:04;;;;;;;5.60;4.18;;;8.90;66.80;;;;;;5003157;28;20041;-78
2023/01/02 10:48:49;;;;;;;6.60;4.93;;;8.90;66.90;;;;;;5003593;28;20059;-77
2023/01/02 10:51:36;;;;;;;6.50;5.78;;;8.90;66.90;;;;;;5008935;28;20054;-76
2023/01/02 10:54:21;;;;;;;10.18;4.43;;;8.90;67.00;;;;;;4993087;28;20052;-76
2023/01/02 10:57:19;;;;;;;5.55;4.53;;;8.90;67.00;;;;;;5009116;28;20095;-76
2023/01/02 11:00:07;;;;;;;6.63;3.95;;;8.80;66.90;;;;;;5010105;28;20088;-80
2023/01/02 11:02:55;;;;;;;3.95;3.63;;;8.80;66.90;;;;;;5018897;28;20732;-77
2023/01/02 11:05:49;;;;;;;4.53;3.70;;;8.80;66.90;;;;;;5008051;28;20517;-76
2023/01/02 11:08:36;;;;;;;4.50;4.03;;;8.80;67.00;;;;;;5014224;28;20103;-76
2023/01/02 11:11:23;;;;;;;4.25;3.85;;;8.80;67.00;;;;;;5017969;28;20041;-76
2023/01/02 11:14:10;;;;;;;4.75;3.40;;;8.80;67.00;;;;;;5010615;28;20045;-81
2023/01/02 11:17:05;;;;;;;4.82;4.10;;;8.80;67.00;;;;;;5007579;28;20033;-75
2023/01/02 11:19:55;;;;;;;7.97;3.55;;;8.80;67.00;;;;;;5012087;28;20033;-76
2023/01/02 11:22:40;;;;;;;4.55;3.85;;;8.80;67.10;;;;;;5007254;28;20089;-81
2023/01/02 11:25:27;;;;;;;4.70;3.78;;;8.80;67.60;;;;;;5008017;28;20103;-80
2023/01/02 11:28:22;;;;;;;9.90;4.18;;;8.80;67.10;;;;;;5010576;28;20047;-79
2023/01/02 11:31:12;;;;;;;7.00;3.42;;;8.80;67.10;;;;;;5022716;28;20042;-79
2023/01/02 11:34:09;;;;;;;4.97;3.47;;;8.90;67.30;;;;;;5001918;28;20545;-81
2023/01/02 11:37:27;;;;;;;4.70;3.80;;;8.90;67.20;;;;;;5003348;28;20041;-80
2023/01/02 11:40:25;;;;;;;5.70;3.67;;;8.90;67.30;;;;;;5024435;28;20292;-79
2023/01/02 11:46:28;;;;;;;3.33;3.00;;;8.90;67.20;;;;;;5008420;28;20040;-80
2023/01/02 11:49:19;;;;;;;4.50;3.03;;;8.90;67.30;;;;;;5013627;28;20185;-80
2023/01/02 11:52:05;;;;;;;3.58;3.17;;;8.90;67.40;;;;;;4995399;28;20068;-82
2023/01/02 11:55:31;;;;;;;4.68;3.25;;;9.00;68.00;;;;;;5007612;28;20057;-80
2023/01/02 11:58:37;;;;;;;3.88;2.40;;;9.10;68.40;;;;;;5005402;28;20076;-80
2023/01/02 12:01:29;;;;;;;5.38;3.00;;;9.30;68.40;;;;;;5010664;28;20362;-78
2023/01/02 12:04:15;;;;;;;4.25;2.80;;;9.30;68.30;;;;;;5005413;28;20513;-78
2023/01/02 12:07:34;;;;;;;3.88;2.90;;;9.30;68.40;;;;;;5003076;28;20072;-78
2023/01/02 12:10:42;;;;;;;5.60;2.88;;;9.40;68.80;;;;;;5012808;28;20091;-80
2023/01/02 12:13:45;;;;;;;4.25;3.53;;;9.40;68.80;;;;;;5018251;28;20036;-79
2023/01/02 12:16:46;;;;;;;3.60;3.22;;;9.50;68.90;;;;;;5005736;28;20575;-80
2023/01/02 12:19:36;;;;;;;4.07;3.15;;;9.50;69.40;;;;;;5010336;28;20045;-78
2023/01/02 12:22:30;;;;;;;3.92;3.10;;;9.50;68.90;;;;;;5005120;28;20048;-87
2023/01/02 12:25:53;;;;;;;3.67;3.05;;;9.60;69.20;;;;;;5015833;28;20048;-88
2023/01/02 12:29:10;;;;;;;3.40;3.05;;;9.60;69.20;;;;;;5021472;28;20041;-93
2023/01/02 12:32:11;;;;;;;4.85;3.20;;;9.60;69.20;;;;;;5015362;28;20048;-93
2023/01/02 12:35:31;;;;;;;3.40;2.88;;;9.60;69.20;;;;;;5000132;28;20032;-79
2023/01/02 12:38:32;;;;;;;3.80;3.03;;;9.70;69.40;;;;;;5016186;28;20543;-81
2023/01/02 12:41:29;;;;;;;6.55;3.20;;;9.70;69.40;;;;;;5003492;28;20041;-76
2023/01/02 12:44:24;;;;;;;4.40;3.03;;;9.80;69.50;;;;;;5005132;28;20069;-75
2023/01/02 12:47:33;;;;;;;5.85;3.08;;;9.80;69.40;;;;;;5017752;28;20040;-76
2023/01/02 12:50:35;;;;;;;3.42;2.90;;;9.80;69.40;;;;;;5005992;28;20104;-76
2023/01/02 12:53:32;;;;;;;4.65;3.15;;;9.70;69.10;;;;;;4993345;28;20702;-76
2023/01/02 12:56:31;;;;;;;3.40;3.05;;;9.70;69.10;;;;;;4994063;28;20045;-76
2023/01/02 12:59:25;;;;;;;3.55;2.80;;;9.70;69.10;;;;;;4998908;28;20122;-75
2023/01/02 13:02:40;;;;;;;5.85;2.83;;;9.70;69.00;;;;;;4995862;28;20631;-74
2023/01/02 13:05:31;;;;;;;3.40;3.10;;;9.70;69.00;;;;;;5001472;28;20053;-80
2023/01/02 13:08:48;;;;;;;4.25;2.70;;;9.60;68.70;;;;;;5006457;28;20460;-81
2023/01/02 13:12:05;;;;;;;4.18;3.40;;;9.60;68.60;;;;;;5008250;28;20130;-83
2023/01/02 13:14:52;;;;;;;3.85;3.15;;;9.60;68.60;;;;;;5005379;28;20045;-84
2023/01/02 13:17:49;;;;;;;5.68;3.40;;;9.60;68.60;;;;;;5007643;28;20116;-81
2023/01/02 13:21:16;;;;;;;6.63;3.33;;;9.60;68.50;;;;;;5024003;28;20115;-82
2023/01/02 13:24:03;;;;;;;6.13;2.50;;;9.60;68.30;;;;;;4998974;28;20044;-76
2023/01/02 13:26:48;;;;;;;5.43;3.30;;;9.60;68.30;;;;;;5007658;28;20516;-75
2023/01/02 13:29:42;;;;;;;3.38;2.75;;;9.50;68.10;;;;;;5012135;28;20136;-74
2023/01/02 13:32:27;;;;;;;;;;;9.60;68.20;;;;;;5002085;28;20100;-76
2023/01/02 13:35:11;;;;;;;3.38;1.90;;;9.60;68.10;;;;;;4998843;28;19917;-76
2023/01/02 13:37:56;;;;;;;2.95;2.33;;;9.60;68.10;;;;;;5002389;28;20566;-75
2023/01/02 13:40:41;;;;;;;3.22;2.38;;;9.50;67.80;;;;;;5008282;28;20057;-75
2023/01/02 13:43:30;;;;;;;3.13;1.90;;;9.50;67.80;;;;;;5006422;28;20559;-75
2023/01/02 13:46:38;;;;;;;3.58;2.08;;;9.50;67.70;;;;;;4996611;28;20064;-80
2023/01/02 13:49:23;;;;;;;2.65;1.60;;;9.50;67.60;;;;;;4996582;28;20049;-81
2023/01/02 13:52:34;;;;;;;3.05;1.77;;;9.50;67.60;;;;;;5007508;28;20157;-82
2023/01/02 13:55:20;;;;;;;2.35;1.65;;;9.50;67.40;;;;;;5007777;28;20125;-79
2023/01/02 14:01:26;;;;;;;2.75;1.55;;;9.40;67.20;;;;;;5010034;28;20273;-82
2023/01/02 14:04:18;;;;;;;4.35;1.80;;;9.40;67.10;;;;;;5009179;28;20069;-81
2023/01/02 14:07:24;;;;;;;3.20;1.60;;;9.40;67.20;;;;;;5001601;28;20096;-83
2023/01/02 14:10:09;;;;;;;2.95;1.70;;;9.40;67.10;;;;;;5014778;28;20033;-80
2023/01/02 14:13:00;;;;;;;2.33;1.63;;;9.40;67.10;;;;;;5012264;28;20480;-81
2023/01/02 14:16:17;;;;;;;2.88;1.60;;;9.40;67.10;;;;;;4995563;28;20560;-78
2023/01/02 14:19:14;;;;;;;2.03;1.73;;;9.40;67.00;;;;;;4994022;28;20038;-75
2023/01/02 14:21:58;;;;;;;3.70;1.55;;;9.40;67.00;;;;;;5005535;28;20079;-77
2023/01/02 14:24:48;;;;;;;2.67;1.52;;;9.40;67.00;;;;;;5004393;28;20468;-84
2023/01/02 14:27:35;;;;;;;4.00;1.83;;;9.30;66.70;;;;;;5011387;28;20060;-92
2023/01/02 14:30:42;;;;;;;4.18;1.67;;;9.30;66.70;;;;;;5020473;28;20104;-94
2023/01/02 14:33:33;;;;;;;5.07;1.85;;;9.30;66.60;;;;;;5021639;28;20076;-94
2023/01/02 14:36:17;;;;;;;1.75;1.35;;;9.40;66.80;;;;;;5005850;28;20204;-89
2023/01/02 14:39:03;;;;;;;2.63;1.55;;;9.30;66.60;;;;;;5002640;28;20096;-92
2023/01/02 14:45:01;;;;;;;2.78;1.48;;;9.30;66.50;;;;;;5013029;28;20092;-90
2023/01/02 14:47:52;;;;;;;3.90;1.50;;;9.30;66.50;;;;;;4993096;28;20057;-84
2023/01/02 14:50:40;;;;;;;1.50;1.40;;;9.30;66.40;;;;;;5008527;28;20161;-84
2023/01/02 14:53:34;;;;;;;2.83;1.45;;;9.30;66.50;;;;;;5006493;28;20092;-80
2023/01/02 14:56:25;;;;;;;2.38;1.30;;;9.20;66.20;;;;;;5003273;28;20043;-80
2023/01/02 14:59:24;;;;;;;1.73;1.40;;;9.20;66.30;;;;;;5012946;28;20112;-80
2023/01/02 15:02:18;;;;;;;2.97;1.98;;;9.20;66.20;;;;;;5008360;28;20061;-81
2023/01/02 15:05:09;;;;;;;5.35;2.13;;;9.20;66.30;;;;;;5006980;28;20061;-89